createdAt,value
2019-04-23T00:00:07.106Z,43.98
2019-04-23T00:00:39.068Z,43.88
2019-04-23T00:01:23.079Z,43.98
2019-04-23T00:01:55.385Z,43.88
2019-04-23T00:02:12.952Z,44.17
2019-04-23T00:02:33.022Z,43.98
2019-04-23T00:03:05.308Z,44.17
2019-04-23T00:03:38.531Z,43.98
2019-04-23T00:04:09.828Z,43.98
2019-04-23T00:04:35.002Z,44.07
2019-04-23T00:05:16.747Z,44.36
2019-04-23T00:06:18.311Z,44.45
2019-04-23T00:06:57.197Z,44.26
2019-04-23T00:07:25.649Z,44.45
2019-04-23T00:07:48.171Z,44.26
2019-04-23T00:08:16.123Z,44.36
2019-04-23T00:09:06.398Z,44.36
2019-04-23T00:09:18.782Z,44.26
2019-04-23T00:09:46.205Z,44.17
2019-04-23T00:10:42.275Z,44.26
2019-04-23T00:10:51.295Z,44.26
2019-04-23T00:11:25.270Z,44.17
2019-04-23T00:11:51.228Z,44.45
2019-04-23T00:12:29.731Z,44.36
2019-04-23T00:12:52.406Z,44.26
2019-04-23T00:13:29.104Z,44.45
2019-04-23T00:13:57.589Z,44.55
2019-04-23T00:14:26.996Z,44.93
2019-04-23T00:15:04.216Z,44.93
2019-04-23T00:15:23.080Z,44.74
2019-04-23T00:16:02.803Z,45.03
2019-04-23T00:16:57.421Z,45.1
2019-04-23T00:17:47.635Z,45.2
2019-04-23T00:18:02.631Z,45.01
2019-04-23T00:18:36.605Z,45.03
2019-04-23T00:18:55.639Z,44.81
2019-04-23T00:19:30.792Z,45.01
2019-04-23T00:20:01.787Z,45.01
2019-04-23T00:20:25.154Z,45.2
2019-04-23T00:21:05.622Z,45.2
2019-04-23T00:21:56.635Z,45.1
2019-04-23T00:22:36.398Z,45.1
2019-04-23T00:23:04.881Z,45.2
2019-04-23T00:23:34.487Z,45.29
2019-04-23T00:24:09.861Z,45.96
2019-04-23T00:24:46.008Z,46.06
2019-04-23T00:25:32.859Z,45.87
2019-04-23T00:25:43.452Z,45.67
2019-04-23T00:27:05.586Z,45.67
2019-04-23T00:27:35.067Z,45.77
2019-04-23T00:28:06.345Z,45.67
2019-04-23T00:28:34.687Z,45.77
2019-04-23T00:29:36.319Z,45.77
2019-04-23T00:30:09.300Z,45.67
2019-04-23T00:31:13.158Z,45.58
2019-04-23T00:32:14.955Z,45.67
2019-04-23T00:32:39.023Z,45.58
2019-04-23T00:33:40.694Z,45.96
2019-04-23T00:34:15.289Z,46.15
2019-04-23T00:34:47.133Z,46.06
2019-04-23T00:35:12.235Z,46.15
2019-04-23T00:35:43.093Z,46.34
2019-04-23T00:36:19.285Z,46.25
2019-04-23T00:36:43.997Z,46.25
2019-04-23T00:37:25.282Z,46.92
2019-04-23T00:37:47.136Z,46.92
2019-04-23T00:39:01.103Z,47.01
2019-04-23T00:39:22.845Z,47.01
2019-04-23T00:39:56.132Z,47.01
2019-04-23T00:40:25.420Z,47.01
2019-04-23T00:41:24.383Z,46.72
2019-04-23T00:41:57.159Z,46.82
2019-04-23T00:42:29.383Z,46.82
2019-04-23T00:42:53.052Z,46.72
2019-04-23T00:43:25.806Z,46.92
2019-04-23T00:44:14.579Z,47.11
2019-04-23T00:44:32.010Z,47.11
2019-04-23T00:44:56.112Z,47.2
2019-04-23T00:45:32.365Z,47.01
2019-04-23T00:45:54.250Z,47.3
2019-04-23T00:47:00.640Z,47.39
2019-04-23T00:47:37.762Z,47.47
2019-04-23T00:48:01.557Z,47.2
2019-04-23T00:48:34.783Z,47.37
2019-04-23T00:49:04.751Z,47.27
2019-04-23T00:49:39.562Z,47.47
2019-04-23T00:50:44.581Z,47.75
2019-04-23T00:51:01.780Z,47.66
2019-04-23T00:51:36.146Z,47.66
2019-04-23T00:52:14.242Z,48.23
2019-04-23T00:52:38.664Z,48.04
2019-04-23T00:53:10.779Z,48.23
2019-04-23T00:53:36.824Z,48.23
2019-04-23T00:54:11.024Z,48.23
2019-04-23T00:54:48.648Z,47.56
2019-04-23T00:56:31.741Z,47.85
2019-04-23T00:56:44.321Z,48.04
2019-04-23T00:57:48.288Z,48.13
2019-04-23T00:58:20.988Z,48.04
2019-04-23T00:58:47.519Z,48.42
2019-04-23T00:59:20.509Z,48.42
2019-04-23T01:00:01.719Z,48.42
2019-04-23T01:00:25.813Z,48.23
2019-04-23T01:00:52.198Z,48.71
2019-04-23T01:01:26.226Z,48.52
2019-04-23T01:01:55.599Z,48.52
2019-04-23T01:02:30.706Z,48.33
2019-04-23T01:02:58.779Z,48.33
2019-04-23T01:03:21.265Z,48.61
2019-04-23T01:03:57.713Z,48.61
2019-04-23T01:04:31.438Z,48.8
2019-04-23T01:05:03.462Z,48.61
2019-04-23T01:05:29.257Z,48.8
2019-04-23T01:05:58.511Z,48.8
2019-04-23T01:06:28.646Z,49.09
2019-04-23T01:07:04.140Z,49.18
2019-04-23T01:07:31.414Z,49.18
2019-04-23T01:08:04.911Z,48.99
2019-04-23T01:09:01.934Z,49.28
2019-04-23T01:09:38.488Z,48.99
2019-04-23T01:10:07.753Z,49.09
2019-04-23T01:10:34.273Z,49.09
2019-04-23T01:11:38.498Z,49.18
2019-04-23T01:12:12.323Z,49.09
2019-04-23T01:12:45.754Z,49.28
2019-04-23T01:13:14.265Z,49.18
2019-04-23T01:13:42.472Z,49.07
2019-04-23T01:14:13.075Z,49.28
2019-04-23T01:14:47.983Z,49.07
2019-04-23T01:15:18.682Z,49.44
2019-04-23T01:15:45.752Z,49.83
2019-04-23T01:16:14.771Z,49.44
2019-04-23T01:16:42.326Z,49.73
2019-04-23T01:17:26.022Z,49.73
2019-04-23T01:17:52.910Z,49.64
2019-04-23T01:18:29.748Z,50.02
2019-04-23T01:18:53.847Z,49.93
2019-04-23T01:19:30.939Z,50.12
2019-04-23T01:19:54.229Z,50.31
2019-04-23T01:20:28.227Z,50.31
2019-04-23T01:20:52.396Z,50.02
2019-04-23T01:21:07.430Z,50.02
2019-04-23T01:21:36.661Z,50.49
2019-04-23T01:22:06.403Z,50.4
2019-04-23T01:22:37.872Z,50.02
2019-04-23T01:23:05.593Z,50.4
2019-04-23T01:23:42.247Z,50.4
2019-04-23T01:24:09.996Z,50.31
2019-04-23T01:24:38.987Z,49.93
2019-04-23T01:25:13.233Z,50.31
2019-04-23T01:25:47.281Z,50.4
2019-04-23T01:26:23.722Z,50.4
2019-04-23T01:27:13.890Z,50.12
2019-04-23T01:27:44.397Z,50.12
2019-04-23T01:28:01.723Z,50.31
2019-04-23T01:28:35.363Z,50.21
2019-04-23T01:29:01.287Z,50.49
2019-04-23T01:29:35.435Z,50.21
2019-04-23T01:30:09.213Z,50.31
2019-04-23T01:30:32.705Z,50.31
2019-04-23T01:31:08.719Z,50.69
2019-04-23T01:31:40.894Z,50.59
2019-04-23T01:32:04.899Z,50.59
2019-04-23T01:32:36.347Z,50.69
2019-04-23T01:33:08.992Z,51.17
2019-04-23T01:34:12.822Z,51.07
2019-04-23T01:35:06.420Z,50.78
2019-04-23T01:35:18.747Z,50.78
2019-04-23T01:35:39.434Z,51.26
2019-04-23T01:36:21.303Z,51.23
2019-04-23T01:36:39.859Z,51.14
2019-04-23T01:37:17.907Z,51.04
2019-04-23T01:37:57.819Z,51.04
2019-04-23T01:38:18.190Z,51.07
2019-04-23T01:39:06.045Z,50.78
2019-04-23T01:39:15.579Z,51.26
2019-04-23T01:39:52.302Z,51.43
2019-04-23T01:40:24.733Z,51.43
2019-04-23T01:40:45.570Z,51.35
2019-04-23T01:41:26.360Z,52.09
2019-04-23T01:41:55.360Z,52.03
2019-04-23T01:43:07.317Z,52
2019-04-23T01:43:22.390Z,52.09
2019-04-23T01:43:50.123Z,52.09
2019-04-23T01:44:36.559Z,52.19
2019-04-23T01:45:06.566Z,51.93
2019-04-23T01:45:26.788Z,52
2019-04-23T01:46:00.821Z,52.03
2019-04-23T01:46:35.389Z,51.9
2019-04-23T01:47:00.477Z,52
2019-04-23T01:47:38.153Z,51.62
2019-04-23T01:47:59.456Z,51.62
2019-04-23T01:48:32.424Z,51.81
2019-04-23T01:49:05.570Z,51.9
2019-04-23T01:50:18.525Z,51.81
2019-04-23T01:50:43.257Z,52.19
2019-04-23T01:51:00.179Z,51.9
2019-04-23T01:52:14.309Z,51.62
2019-04-23T01:52:45.394Z,51.71
2019-04-23T01:53:14.250Z,52
2019-04-23T01:53:38.459Z,51.62
2019-04-23T01:54:08.970Z,51.71
2019-04-23T01:54:45.074Z,52.19
2019-04-23T01:55:14.787Z,52.28
2019-04-23T01:55:46.371Z,52.28
2019-04-23T01:56:19.311Z,52.67
2019-04-23T01:56:38.347Z,52.67
2019-04-23T01:57:16.202Z,52.57
2019-04-23T01:57:54.449Z,52.28
2019-04-23T01:58:51.716Z,52.48
2019-04-23T01:59:54.455Z,52.57
2019-04-23T02:00:21.840Z,52.57
2019-04-23T02:00:52.702Z,52.38
2019-04-23T02:01:25.118Z,52.76
2019-04-23T02:02:25.981Z,52.09
2019-04-23T02:02:55.270Z,52.48
2019-04-23T02:03:26.374Z,52.28
2019-04-23T02:04:28.021Z,52.57
2019-04-23T02:05:00.945Z,52.48
2019-04-23T02:05:34.736Z,52.48
2019-04-23T02:05:59.866Z,52.86
2019-04-23T02:06:31.193Z,53.33
2019-04-23T02:06:57.538Z,52.57
2019-04-23T02:07:35.388Z,52.86
2019-04-23T02:08:03.108Z,53.05
2019-04-23T02:08:31.667Z,53.24
2019-04-23T02:09:04.791Z,53.05
2019-04-23T02:11:00.024Z,52.95
2019-04-23T02:11:36.895Z,52.76
2019-04-23T02:12:10.906Z,53.05
2019-04-23T02:12:40.404Z,53.14
2019-04-23T02:13:10.330Z,53.14
2019-04-23T02:13:34.982Z,52.95
2019-04-23T02:14:08.153Z,53.14
2019-04-23T02:14:41.388Z,53.24
2019-04-23T02:15:11.047Z,52.67
2019-04-23T02:15:40.723Z,52.67
2019-04-23T02:16:09.979Z,52.86
2019-04-23T02:16:54.944Z,52.48
2019-04-23T02:17:28.287Z,52.67
2019-04-23T02:17:44.121Z,52.76
2019-04-23T02:18:15.622Z,52.67
2019-04-23T02:18:41.386Z,53.24
2019-04-23T02:19:16.328Z,53.05
2019-04-23T02:19:45.597Z,52.95
2019-04-23T02:20:20.665Z,52.95
2019-04-23T02:20:47.087Z,52.86
2019-04-23T02:21:14.718Z,52.67
2019-04-23T02:21:51.550Z,53.43
2019-04-23T02:22:24.407Z,53.33
2019-04-23T02:22:58.156Z,53.33
2019-04-23T02:23:47.819Z,54.1
2019-04-23T02:24:17.270Z,54.38
2019-04-23T02:24:53.848Z,53.62
2019-04-23T02:25:31.507Z,53.72
2019-04-23T02:26:36.675Z,53.81
2019-04-23T02:26:48.348Z,53.81
2019-04-23T02:27:27.639Z,53.53
2019-04-23T02:28:04.243Z,53.53
2019-04-23T02:28:32.509Z,53.62
2019-04-23T02:28:58.975Z,53.62
2019-04-23T02:29:51.033Z,53.53
2019-04-23T02:30:14.802Z,54
2019-04-23T02:30:50.489Z,53.62
2019-04-23T02:31:31.863Z,54.38
2019-04-23T02:31:57.329Z,54.1
2019-04-23T02:32:08.232Z,54.1
2019-04-23T02:32:45.234Z,53.91
2019-04-23T02:33:43.055Z,54.38
2019-04-23T02:34:51.092Z,53.72
2019-04-23T02:35:42.224Z,53.72
2019-04-23T02:35:53.693Z,53.72
2019-04-23T02:36:31.247Z,53.62
2019-04-23T02:36:54.310Z,54
2019-04-23T02:38:00.040Z,53.33
2019-04-23T02:39:21.616Z,53.43
2019-04-23T02:40:37.078Z,54.1
2019-04-23T02:41:08.367Z,54.1
2019-04-23T02:41:26.374Z,53.72
2019-04-23T02:42:39.344Z,53.91
2019-04-23T02:43:12.140Z,53.81
2019-04-23T02:44:04.124Z,53.72
2019-04-23T02:44:38.469Z,53.81
2019-04-23T02:45:01.806Z,54.1
2019-04-23T02:45:38.976Z,53.91
2019-04-23T02:46:01.352Z,54.38
2019-04-23T02:46:20.586Z,54.29
2019-04-23T02:47:31.627Z,54.38
2019-04-23T02:48:10.275Z,54.1
2019-04-23T02:49:04.158Z,53.91
2019-04-23T02:49:43.224Z,54.38
2019-04-23T02:50:19.856Z,54.48
2019-04-23T02:51:03.321Z,54.19
2019-04-23T02:52:36.797Z,54.19
2019-04-23T02:53:14.182Z,54.19
2019-04-23T02:54:03.776Z,54.19
2019-04-23T02:54:25.879Z,53.81
2019-04-23T02:54:49.898Z,54.19
2019-04-23T02:55:17.002Z,54
2019-04-23T02:55:48.353Z,54.38
2019-04-23T02:57:49.863Z,53.91
2019-04-23T02:58:25.809Z,54.19
2019-04-23T02:59:01.595Z,54.29
2019-04-23T03:00:11.154Z,53.72
2019-04-23T03:00:27.503Z,53.91
2019-04-23T03:01:19.223Z,54.1
2019-04-23T03:02:14.082Z,54.48
2019-04-23T03:03:13.259Z,53.81
2019-04-23T03:03:33.102Z,53.81
2019-04-23T03:04:33.661Z,53.81
2019-04-23T03:05:35.673Z,53.81
2019-04-23T03:06:13.905Z,53.91
2019-04-23T03:07:13.776Z,54.38
2019-04-23T03:07:38.792Z,54.1
2019-04-23T03:07:59.256Z,54.38
2019-04-23T03:08:37.476Z,54.67
2019-04-23T03:09:44.258Z,54.67
2019-04-23T03:10:15.200Z,54.57
2019-04-23T03:10:15.201Z,54.38
2019-04-23T03:10:40.117Z,54.38
2019-04-23T03:12:05.636Z,54.48
2019-04-23T03:12:14.517Z,54.67
2019-04-23T03:13:53.301Z,54.57
2019-04-23T03:14:48.710Z,54.38
2019-04-23T03:16:26.742Z,54.57
2019-04-23T03:17:24.009Z,54.77
2019-04-23T03:17:57.263Z,55.05
2019-04-23T03:19:31.487Z,55.15
2019-04-23T03:19:58.316Z,55.15
2019-04-23T03:20:32.268Z,55.15
2019-04-23T03:21:15.176Z,55.53
2019-04-23T03:21:30.980Z,55.43
2019-04-23T03:22:05.415Z,55.43
2019-04-23T03:23:09.766Z,55.15
2019-04-23T03:23:41.534Z,55.34
2019-04-23T03:24:09.056Z,55.43
2019-04-23T03:25:05.008Z,55.91
2019-04-23T03:25:35.448Z,55.82
2019-04-23T03:26:13.410Z,55.43
2019-04-23T03:27:16.181Z,55.34
2019-04-23T03:27:33.486Z,55.53
2019-04-23T03:28:06.665Z,55.72
2019-04-23T03:28:42.587Z,55.72
2019-04-23T03:29:19.289Z,56.1
2019-04-23T03:29:48.643Z,56.2
2019-04-23T03:30:15.448Z,56.1
2019-04-23T03:30:57.825Z,56.67
2019-04-23T03:32:44.419Z,56.29
2019-04-23T03:33:52.189Z,56.38
2019-04-23T03:33:52.191Z,56.2
2019-04-23T03:37:55.409Z,57.53
2019-04-23T03:38:42.801Z,57.15
2019-04-23T03:39:28.141Z,57.53
2019-04-23T03:40:25.598Z,57.43
2019-04-23T03:41:06.403Z,57.24
2019-04-23T03:41:27.545Z,57.6
2019-04-23T03:41:59.322Z,57.63
2019-04-23T03:42:32.821Z,57.43
2019-04-23T03:43:14.103Z,57.43
2019-04-23T03:43:32.845Z,57.41
2019-04-23T03:44:37.430Z,57.31
2019-04-23T03:45:15.719Z,57.31
2019-04-23T03:46:36.181Z,57.63
2019-04-23T03:47:10.517Z,57.43
2019-04-23T03:48:14.435Z,57.6
2019-04-23T03:49:05.313Z,57.63
2019-04-23T03:50:14.511Z,57.34
2019-04-23T03:51:15.966Z,57.34
2019-04-23T03:51:50.998Z,57.22
2019-04-23T03:52:20.548Z,57.24
2019-04-23T03:52:44.145Z,57.5
2019-04-23T03:53:24.052Z,57.79
2019-04-23T03:53:51.971Z,58.17
2019-04-23T03:54:30.016Z,58.17
2019-04-23T03:55:18.145Z,57.98
2019-04-23T03:55:54.206Z,57.98
2019-04-23T03:56:31.131Z,58.26
2019-04-23T03:57:29.853Z,58.17
2019-04-23T03:57:42.768Z,58.17
2019-04-23T03:58:46.747Z,58.46
2019-04-23T03:59:54.535Z,58.26
2019-04-23T04:00:55.835Z,58.26
2019-04-23T04:02:39.632Z,58.36
2019-04-23T04:03:49.893Z,58.26
2019-04-23T04:05:00.281Z,58.46
2019-04-23T04:05:35.498Z,58.65
2019-04-23T04:06:05.058Z,58.65
2019-04-23T04:07:46.757Z,58.46
2019-04-23T04:08:13.086Z,58.75
2019-04-23T04:08:33.510Z,58.65
2019-04-23T04:09:16.675Z,58.65
2019-04-23T04:09:38.358Z,58.36
2019-04-23T04:10:04.810Z,58.55
2019-04-23T04:10:43.990Z,58.65
2019-04-23T04:11:26.949Z,58.55
2019-04-23T04:12:38.978Z,58.75
2019-04-23T04:13:14.922Z,59.51
2019-04-23T04:14:53.073Z,59.22
2019-04-23T04:15:30.843Z,59.22
2019-04-23T04:15:55.056Z,59.12
2019-04-23T04:16:15.368Z,59.03
2019-04-23T04:16:48.812Z,59.03
2019-04-23T04:17:19.415Z,59.12
2019-04-23T04:17:58.822Z,58.94
2019-04-23T04:18:54.008Z,59.12
2019-04-23T04:19:55.677Z,59.22
2019-04-23T04:21:00.442Z,59.03
2019-04-23T04:22:26.369Z,59.03
2019-04-23T04:22:36.883Z,58.94
2019-04-23T04:23:32.609Z,59.03
2019-04-23T04:24:09.891Z,59.03
2019-04-23T04:24:34.268Z,58.94
2019-04-23T04:25:06.462Z,59.22
2019-04-23T04:26:03.947Z,59.31
2019-04-23T04:26:43.624Z,59.12
2019-04-23T04:27:23.928Z,59.31
2019-04-23T04:27:44.834Z,59.6
2019-04-23T04:28:17.020Z,59.51
2019-04-23T04:28:45.760Z,59.51
2019-04-23T04:30:51.819Z,60.17
2019-04-23T04:31:11.818Z,59.89
2019-04-23T04:31:59.711Z,59.89
2019-04-23T04:32:07.678Z,60.27
2019-04-23T04:32:56.295Z,60.27
2019-04-23T04:33:28.666Z,60.55
2019-04-23T04:34:35.820Z,60.84
2019-04-23T04:35:12.013Z,61.51
2019-04-23T04:35:56.100Z,62.65
2019-04-23T04:36:26.192Z,62.37
2019-04-23T04:38:03.933Z,61.73
2019-04-23T04:38:54.090Z,60.3
2019-04-23T04:39:33.246Z,60.3
2019-04-23T04:40:10.358Z,60.39
2019-04-23T04:41:00.887Z,59.06
2019-04-23T04:41:39.665Z,59.73
2019-04-23T04:42:04.427Z,59.63
2019-04-23T04:42:32.596Z,58.87
2019-04-23T04:43:12.991Z,59.16
2019-04-23T04:44:40.888Z,59.25
2019-04-23T04:45:49.479Z,58.77
2019-04-23T04:47:09.286Z,58.68
2019-04-23T04:47:41.104Z,58.68
2019-04-23T04:48:07.105Z,58.68
2019-04-23T04:49:19.536Z,58.2
2019-04-23T04:49:55.533Z,58.61
2019-04-23T04:50:14.527Z,58.2
2019-04-23T04:50:48.935Z,58.2
2019-04-23T04:51:26.864Z,58.7
2019-04-23T04:52:33.271Z,58.77
2019-04-23T04:52:55.734Z,58.48
2019-04-23T04:53:44.593Z,58.23
2019-04-23T04:54:00.615Z,58.2
2019-04-23T04:54:49.574Z,58.42
2019-04-23T04:55:26.025Z,58.51
2019-04-23T04:56:04.762Z,58.51
2019-04-23T04:56:28.935Z,58.42
2019-04-23T04:57:35.735Z,58.23
2019-04-23T04:58:30.613Z,58.14
2019-04-23T04:59:03.450Z,58.04
2019-04-23T04:59:34.838Z,58.01
2019-04-23T05:00:10.126Z,58.48
2019-04-23T05:01:36.000Z,58.68
2019-04-23T05:02:52.420Z,58.97
2019-04-23T05:03:18.752Z,59.16
2019-04-23T05:03:29.026Z,59.16
2019-04-23T05:04:42.066Z,59.53
2019-04-23T05:05:37.422Z,59.63
2019-04-23T05:06:50.928Z,59.73
2019-04-23T05:07:27.319Z,60.02
2019-04-23T05:07:47.214Z,60.21
2019-04-23T05:08:54.162Z,59.63
2019-04-23T05:09:18.923Z,59.63
2019-04-23T05:09:47.258Z,59.63
2019-04-23T05:10:32.221Z,60.21
2019-04-23T05:11:25.681Z,59.92
2019-04-23T05:12:22.658Z,60.3
2019-04-23T05:12:58.771Z,61.16
2019-04-23T05:14:33.122Z,60.97
2019-04-23T05:15:22.931Z,60.49
2019-04-23T05:15:57.892Z,60.78
2019-04-23T05:16:25.617Z,60.87
2019-04-23T05:16:55.890Z,60.97
2019-04-23T05:17:31.869Z,60.68
2019-04-23T05:18:07.235Z,61.16
2019-04-23T05:18:27.008Z,61.07
2019-04-23T05:19:01.765Z,60.87
2019-04-23T05:19:56.077Z,61.35
2019-04-23T05:20:25.770Z,61.07
2019-04-23T05:21:11.792Z,61.54
2019-04-23T05:21:26.279Z,61.73
2019-04-23T05:21:58.523Z,61.73
2019-04-23T05:22:28.661Z,61.63
2019-04-23T05:24:28.498Z,61.44
2019-04-23T05:24:50.879Z,62.02
2019-04-23T05:25:24.125Z,61.44
2019-04-23T05:25:57.669Z,61.54
2019-04-23T05:26:57.787Z,61.63
2019-04-23T05:27:36.324Z,61.44
2019-04-23T05:28:07.425Z,61.44
2019-04-23T05:28:38.234Z,61.35
2019-04-23T05:29:03.598Z,61.54
2019-04-23T05:29:52.943Z,61.44
2019-04-23T05:30:07.293Z,61.73
2019-04-23T05:30:37.895Z,61.73
2019-04-23T05:31:05.562Z,61.54
2019-04-23T05:31:46.334Z,61.54
2019-04-23T05:32:04.037Z,61.83
2019-04-23T05:32:40.928Z,61.73
2019-04-23T05:33:11.424Z,62.02
2019-04-23T05:33:36.616Z,61.29
2019-04-23T05:34:14.290Z,60.71
2019-04-23T05:34:39.686Z,60.33
2019-04-23T05:35:20.020Z,60.33
2019-04-23T05:36:05.855Z,60.42
2019-04-23T05:36:45.270Z,60.27
2019-04-23T05:37:19.996Z,59.41
2019-04-23T05:37:58.219Z,59.12
2019-04-23T05:40:14.014Z,58.73
2019-04-23T05:40:29.561Z,58.64
2019-04-23T05:41:02.873Z,58.54
2019-04-23T05:41:53.409Z,58.45
2019-04-23T05:42:25.876Z,58.45
2019-04-23T05:42:57.598Z,58.16
2019-04-23T05:43:25.762Z,58.1
2019-04-23T05:43:59.303Z,57.9
2019-04-23T05:46:04.205Z,57.43
2019-04-23T05:46:36.456Z,57.62
2019-04-23T05:47:10.888Z,57.62
2019-04-23T05:47:32.329Z,57.43
2019-04-23T05:48:12.660Z,57.97
2019-04-23T05:48:37.164Z,58.36
2019-04-23T05:49:37.556Z,58.36
2019-04-23T05:50:17.094Z,58.64
2019-04-23T05:51:17.682Z,58.36
2019-04-23T05:52:28.974Z,59.31
2019-04-23T05:52:45.657Z,59.31
2019-04-23T05:53:18.200Z,59.5
2019-04-23T05:53:44.908Z,58.73
2019-04-23T05:54:18.480Z,58.73
2019-04-23T05:54:49.526Z,58.54
2019-04-23T05:55:13.077Z,58.54
2019-04-23T05:55:47.384Z,58.64
2019-04-23T05:56:12.971Z,58.64
2019-04-23T05:56:43.562Z,58.64
2019-04-23T05:57:13.401Z,58.45
2019-04-23T05:57:42.292Z,58.67
2019-04-23T05:58:21.825Z,58.64
2019-04-23T05:58:51.980Z,57.97
2019-04-23T05:59:22.877Z,58.36
2019-04-23T06:00:23.446Z,58.67
2019-04-23T06:01:19.397Z,58.29
2019-04-23T06:02:33.507Z,58.1
2019-04-23T06:03:04.319Z,58.1
2019-04-23T06:03:28.423Z,58.1
2019-04-23T06:04:10.331Z,58.48
2019-04-23T06:04:30.456Z,58.38
2019-04-23T06:05:03.121Z,58.38
2019-04-23T06:05:32.582Z,58.1
2019-04-23T06:06:02.779Z,58.48
2019-04-23T06:07:14.489Z,57.43
2019-04-23T06:07:35.150Z,57.53
2019-04-23T06:08:24.890Z,57.53
2019-04-23T06:08:38.265Z,57.75
2019-04-23T06:09:39.085Z,57.26
2019-04-23T06:10:39.382Z,57.33
2019-04-23T06:11:18.299Z,57.53
2019-04-23T06:11:50.805Z,57.62
2019-04-23T06:12:43.365Z,57.81
2019-04-23T06:13:18.366Z,58
2019-04-23T06:13:52.085Z,57.9
2019-04-23T06:14:45.526Z,58.58
2019-04-23T06:15:19.989Z,58.67
2019-04-23T06:15:43.083Z,58.67
2019-04-23T06:16:21.921Z,58.67
2019-04-23T06:16:49.113Z,58.67
2019-04-23T06:17:29.404Z,58.67
2019-04-23T06:17:53.762Z,58.58
2019-04-23T06:18:24.114Z,58.38
2019-04-23T06:18:52.854Z,58.76
2019-04-23T06:19:41.571Z,58.38
2019-04-23T06:19:56.616Z,58.29
2019-04-23T06:20:25.982Z,58.67
2019-04-23T06:20:55.374Z,58.48
2019-04-23T06:21:23.577Z,58.29
2019-04-23T06:22:28.458Z,58.76
2019-04-23T06:22:55.843Z,58.38
2019-04-23T06:23:28.633Z,58.48
2019-04-23T06:23:57.762Z,58.38
2019-04-23T06:24:40.699Z,58.38
2019-04-23T06:24:57.673Z,58.38
2019-04-23T06:26:17.688Z,58.95
2019-04-23T06:26:39.187Z,59.63
2019-04-23T06:27:31.865Z,58.76
2019-04-23T06:28:07.813Z,58.67
2019-04-23T06:28:31.414Z,58.48
2019-04-23T06:29:04.782Z,58.67
2019-04-23T06:29:38.458Z,58.48
2019-04-23T06:30:00.439Z,58.58
2019-04-23T06:31:06.113Z,58.67
2019-04-23T06:31:37.887Z,58.86
2019-04-23T06:32:05.803Z,58.58
2019-04-23T06:32:37.051Z,58.58
2019-04-23T06:33:13.096Z,58.29
2019-04-23T06:33:39.488Z,58.58
2019-04-23T06:34:16.384Z,58.48
2019-04-23T06:34:40.910Z,58.76
2019-04-23T06:35:09.612Z,58.58
2019-04-23T06:35:44.667Z,58.76
2019-04-23T06:36:18.474Z,59.05
2019-04-23T06:36:44.308Z,58.38
2019-04-23T06:37:15.873Z,58.29
2019-04-23T06:39:35.703Z,58.51
2019-04-23T06:39:47.878Z,58.7
2019-04-23T06:40:21.476Z,58.03
2019-04-23T06:40:53.747Z,58.12
2019-04-23T06:41:21.022Z,58.03
2019-04-23T06:41:54.560Z,58.22
2019-04-23T06:42:17.340Z,58.03
2019-04-23T06:42:51.909Z,57.65
2019-04-23T06:43:23.904Z,57.84
2019-04-23T06:43:57.984Z,57.84
2019-04-23T06:44:23.894Z,58.12
2019-04-23T06:45:27.466Z,57.75
2019-04-23T06:45:57.320Z,57.84
2019-04-23T06:46:28.079Z,58.03
2019-04-23T06:47:24.634Z,57.36
2019-04-23T06:48:01.447Z,57.55
2019-04-23T06:48:27.331Z,57.55
2019-04-23T06:49:00.548Z,57.17
2019-04-23T06:49:36.849Z,57.75
2019-04-23T06:49:58.016Z,57.77
2019-04-23T06:50:34.355Z,57.93
2019-04-23T06:51:34.460Z,57.01
2019-04-23T06:52:14.430Z,56.62
2019-04-23T06:52:24.556Z,56.72
2019-04-23T06:52:58.676Z,56.62
2019-04-23T06:53:28.459Z,56.72
2019-04-23T06:54:02.903Z,56.43
2019-04-23T06:55:35.429Z,57.01
2019-04-23T06:56:10.536Z,56.34
2019-04-23T06:56:42.339Z,56.37
2019-04-23T06:57:12.536Z,56.17
2019-04-23T06:57:31.599Z,55.88
2019-04-23T06:58:12.146Z,55.53
2019-04-23T06:58:41.450Z,54.77
2019-04-23T06:59:11.793Z,54.41
2019-04-23T06:59:35.113Z,53.26
2019-04-23T07:00:27.071Z,52.69
2019-04-23T07:00:40.938Z,51.95
2019-04-23T07:01:09.398Z,51.95
2019-04-23T07:01:44.466Z,51.56
2019-04-23T07:02:18.320Z,51.2
2019-04-23T07:02:44.046Z,50.82
2019-04-23T07:03:21.703Z,50.56
2019-04-23T07:03:49.865Z,49.33
2019-04-23T07:04:16.868Z,48.57
2019-04-23T07:05:22.211Z,47.89
2019-04-23T07:05:52.599Z,47.8
2019-04-23T07:06:22.126Z,47.25
2019-04-23T07:08:32.090Z,45.61
2019-04-23T07:09:38.465Z,45.23
2019-04-23T07:10:03.418Z,45.42
2019-04-23T07:10:24.802Z,45.42
2019-04-23T07:10:57.318Z,45.32
2019-04-23T07:12:36.074Z,45.35
2019-04-23T07:13:02.450Z,45.35
2019-04-23T07:13:39.843Z,45.06
2019-04-23T07:14:35.457Z,44.41
2019-04-23T07:15:04.288Z,43.45
2019-04-23T07:16:02.806Z,43.64
2019-04-23T07:16:32.356Z,43.64
2019-04-23T07:17:02.226Z,44.02
2019-04-23T07:17:28.822Z,44.02
2019-04-23T07:18:03.747Z,43.84
2019-04-23T07:18:34.324Z,43.45
2019-04-23T07:19:09.021Z,43.37
2019-04-23T07:20:06.480Z,42.5
2019-04-23T07:20:39.788Z,42.32
2019-04-23T07:21:12.799Z,42.22
2019-04-23T07:21:33.252Z,42.14
2019-04-23T07:22:15.851Z,42.22
2019-04-23T07:22:34.354Z,42.58
2019-04-23T07:23:12.180Z,42.97
2019-04-23T07:23:53.451Z,42.5
2019-04-23T07:24:14.966Z,42.87
2019-04-23T07:24:47.032Z,43.14
2019-04-23T07:25:17.090Z,43.81
2019-04-23T07:25:46.630Z,44.1
2019-04-23T07:26:33.134Z,44
2019-04-23T07:27:47.191Z,44.38
2019-04-23T07:28:17.813Z,44.1
2019-04-23T07:28:52.961Z,44.2
2019-04-23T07:29:17.597Z,43.64
2019-04-23T07:29:56.414Z,43.54
2019-04-23T07:30:29.132Z,43.62
2019-04-23T07:31:07.185Z,43.64
2019-04-23T07:31:53.290Z,43.08
2019-04-23T07:32:22.675Z,42.24
2019-04-23T07:32:56.165Z,41.95
2019-04-23T07:33:27.575Z,41.56
2019-04-23T07:34:23.062Z,41.11
2019-04-23T07:35:00.758Z,41.01
2019-04-23T07:35:21.012Z,40.53
2019-04-23T07:35:59.729Z,40.63
2019-04-23T07:36:33.793Z,40.81
2019-04-23T07:37:12.384Z,40.72
2019-04-23T07:37:31.743Z,40.81
2019-04-23T07:38:12.648Z,40.51
2019-04-23T07:38:40.499Z,40.99
2019-04-23T07:39:34.805Z,42.22
2019-04-23T07:40:17.201Z,42.5
2019-04-23T07:40:30.968Z,42.33
2019-04-23T07:41:05.444Z,42.43
2019-04-23T07:41:47.698Z,41.47
2019-04-23T07:42:24.382Z,41.3
2019-04-23T07:43:07.848Z,40.99
2019-04-23T07:43:37.266Z,41.18
2019-04-23T07:44:20.190Z,41.39
2019-04-23T07:44:42.015Z,40.72
2019-04-23T07:45:42.476Z,39.95
2019-04-23T07:46:23.553Z,40.34
2019-04-23T07:46:52.485Z,40.72
2019-04-23T07:47:24.689Z,40.51
2019-04-23T07:47:50.604Z,41.08
2019-04-23T07:48:13.046Z,40.8
2019-04-23T07:48:45.244Z,41.38
2019-04-23T07:49:22.566Z,41.26
2019-04-23T07:50:00.444Z,41.93
2019-04-23T07:51:26.165Z,41.2
2019-04-23T07:52:02.543Z,41.11
2019-04-23T07:54:00.012Z,40.7
2019-04-23T07:54:28.812Z,41.08
2019-04-23T07:55:00.436Z,41.38
2019-04-23T07:55:34.103Z,41.45
2019-04-23T07:56:02.041Z,41.38
2019-04-23T07:56:27.304Z,41.64
2019-04-23T07:57:49.072Z,42.53
2019-04-23T07:58:06.157Z,41.47
2019-04-23T07:58:39.170Z,41.47
2019-04-23T07:59:03.694Z,41.18
2019-04-23T08:00:27.445Z,41.56
2019-04-23T08:00:40.744Z,41.38
2019-04-23T08:01:08.075Z,41.47
2019-04-23T08:01:33.954Z,41.56
2019-04-23T08:02:13.763Z,41.56
2019-04-23T08:02:55.693Z,41.45
2019-04-23T08:03:16.963Z,41.93
2019-04-23T08:04:08.356Z,41.56
2019-04-23T08:04:53.972Z,41.35
2019-04-23T08:05:26.283Z,41.83
2019-04-23T08:05:38.504Z,41.56
2019-04-23T08:06:05.656Z,41.28
2019-04-23T08:06:45.808Z,41.2
2019-04-23T08:07:19.415Z,40.72
2019-04-23T08:07:49.074Z,40.63
2019-04-23T08:08:48.538Z,40.7
2019-04-23T08:09:23.864Z,40.89
2019-04-23T08:09:53.030Z,41.01
2019-04-23T08:10:20.812Z,40.72
2019-04-23T08:11:00.291Z,40.91
2019-04-23T08:11:32.919Z,40.81
2019-04-23T08:11:44.126Z,40.72
2019-04-23T08:12:24.776Z,40.45
2019-04-23T08:12:50.435Z,39.87
2019-04-23T08:13:30.765Z,39.97
2019-04-23T08:13:56.780Z,39.22
2019-04-23T08:14:21.805Z,38.93
2019-04-23T08:14:59.550Z,38.56
2019-04-23T08:15:27.889Z,38.2
2019-04-23T08:15:53.675Z,37.81
2019-04-23T08:16:57.755Z,36.57
2019-04-23T08:17:27.685Z,36.48
2019-04-23T08:17:58.183Z,36.48
2019-04-23T08:18:36.022Z,36.48
2019-04-23T08:18:57.163Z,37.23
2019-04-23T08:19:40.759Z,37.23